sensor_id;sensor_type;location;lat;lon;timestamp;P1;durP1;ratioP1;P2;durP2;ratioP2
9986;SDS011;5033;46.310;11.214;2024-02-21T00:01:40;1.83;;;1.73;;
9986;SDS011;5033;46.310;11.214;2024-02-21T00:04:07;1.73;;;1.63;;
9986;SDS011;5033;46.310;11.214;2024-02-21T00:06:34;1.88;;;1.77;;
9986;SDS011;5033;46.310;11.214;2024-02-21T00:09:02;2.00;;;1.90;;
9986;SDS011;5033;46.310;11.214;2024-02-21T00:11:30;2.00;;;1.90;;
9986;SDS011;5033;46.310;11.214;2024-02-21T00:13:56;2.00;;;1.90;;
9986;SDS011;5033;46.310;11.214;2024-02-21T00:16:24;1.80;;;1.70;;
9986;SDS011;5033;46.310;11.214;2024-02-21T00:18:51;1.92;;;1.83;;
9986;SDS011;5033;46.310;11.214;2024-02-21T00:21:18;2.00;;;1.90;;
9986;SDS011;5033;46.310;11.214;2024-02-21T00:23:45;1.75;;;1.73;;
9986;SDS011;5033;46.310;11.214;2024-02-21T00:26:14;2.00;;;1.90;;
9986;SDS011;5033;46.310;11.214;2024-02-21T00:28:41;1.67;;;1.67;;
9986;SDS011;5033;46.310;11.214;2024-02-21T00:31:08;1.77;;;1.67;;
9986;SDS011;5033;46.310;11.214;2024-02-21T00:33:35;1.63;;;1.52;;
9986;SDS011;5033;46.310;11.214;2024-02-21T00:36:02;1.67;;;1.63;;
9986;SDS011;5033;46.310;11.214;2024-02-21T00:38:29;1.90;;;1.80;;
9986;SDS011;5033;46.310;11.214;2024-02-21T00:40:57;1.80;;;1.70;;
9986;SDS011;5033;46.310;11.214;2024-02-21T00:43:25;1.95;;;1.85;;
9986;SDS011;5033;46.310;11.214;2024-02-21T00:45:52;1.83;;;1.83;;
9986;SDS011;5033;46.310;11.214;2024-02-21T00:48:20;1.90;;;1.80;;
9986;SDS011;5033;46.310;11.214;2024-02-21T00:50:46;1.80;;;1.80;;
9986;SDS011;5033;46.310;11.214;2024-02-21T00:53:14;1.60;;;1.60;;
9986;SDS011;5033;46.310;11.214;2024-02-21T00:55:41;1.80;;;1.75;;
9986;SDS011;5033;46.310;11.214;2024-02-21T00:58:08;2.00;;;1.90;;
9986;SDS011;5033;46.310;11.214;2024-02-21T01:00:37;2.17;;;2.08;;
9986;SDS011;5033;46.310;11.214;2024-02-21T01:03:04;1.70;;;1.60;;
9986;SDS011;5033;46.310;11.214;2024-02-21T01:05:31;1.52;;;1.50;;
9986;SDS011;5033;46.310;11.214;2024-02-21T01:07:58;1.80;;;1.80;;
9986;SDS011;5033;46.310;11.214;2024-02-21T01:10:25;2.13;;;2.03;;
9986;SDS011;5033;46.310;11.214;2024-02-21T01:12:52;2.00;;;1.90;;
9986;SDS011;5033;46.310;11.214;2024-02-21T01:15:19;1.92;;;1.83;;
9986;SDS011;5033;46.310;11.214;2024-02-21T01:17:47;1.70;;;1.70;;
9986;SDS011;5033;46.310;11.214;2024-02-21T01:20:19;1.60;;;1.60;;
9986;SDS011;5033;46.310;11.214;2024-02-21T01:22:46;1.75;;;1.65;;
9986;SDS011;5033;46.310;11.214;2024-02-21T01:25:13;2.00;;;1.90;;
9986;SDS011;5033;46.310;11.214;2024-02-21T01:27:41;1.70;;;1.60;;
9986;SDS011;5033;46.310;11.214;2024-02-21T01:30:08;1.85;;;1.75;;
9986;SDS011;5033;46.310;11.214;2024-02-21T01:32:36;1.83;;;1.73;;
9986;SDS011;5033;46.310;11.214;2024-02-21T01:35:06;2.08;;;1.95;;
9986;SDS011;5033;46.310;11.214;2024-02-21T01:37:34;2.00;;;1.90;;
9986;SDS011;5033;46.310;11.214;2024-02-21T01:40:01;1.83;;;1.83;;
9986;SDS011;5033;46.310;11.214;2024-02-21T01:42:29;1.90;;;1.80;;
9986;SDS011;5033;46.310;11.214;2024-02-21T01:44:56;2.00;;;1.90;;
9986;SDS011;5033;46.310;11.214;2024-02-21T01:47:23;1.85;;;1.83;;
9986;SDS011;5033;46.310;11.214;2024-02-21T01:49:50;1.83;;;1.73;;
9986;SDS011;5033;46.310;11.214;2024-02-21T01:52:19;1.60;;;1.60;;
9986;SDS011;5033;46.310;11.214;2024-02-21T01:54:46;1.92;;;1.83;;
9986;SDS011;5033;46.310;11.214;2024-02-21T01:57:13;1.90;;;1.80;;
9986;SDS011;5033;46.310;11.214;2024-02-21T01:59:41;1.70;;;1.70;;
9986;SDS011;5033;46.310;11.214;2024-02-21T02:02:08;1.48;;;1.48;;
9986;SDS011;5033;46.310;11.214;2024-02-21T02:04:37;2.00;;;1.90;;
9986;SDS011;5033;46.310;11.214;2024-02-21T02:07:05;2.00;;;1.90;;
9986;SDS011;5033;46.310;11.214;2024-02-21T02:09:35;1.88;;;1.85;;
9986;SDS011;5033;46.310;11.214;2024-02-21T02:12:02;1.83;;;1.75;;
9986;SDS011;5033;46.310;11.214;2024-02-21T02:14:30;1.70;;;1.60;;
9986;SDS011;5033;46.310;11.214;2024-02-21T02:16:56;1.83;;;1.77;;
9986;SDS011;5033;46.310;11.214;2024-02-21T02:19:24;2.08;;;1.98;;
9986;SDS011;5033;46.310;11.214;2024-02-21T02:21:51;2.05;;;1.95;;
9986;SDS011;5033;46.310;11.214;2024-02-21T02:24:23;2.10;;;2.00;;
9986;SDS011;5033;46.310;11.214;2024-02-21T02:26:51;2.10;;;2.00;;
9986;SDS011;5033;46.310;11.214;2024-02-21T02:29:19;1.85;;;1.75;;
9986;SDS011;5033;46.310;11.214;2024-02-21T02:31:46;1.90;;;1.80;;
9986;SDS011;5033;46.310;11.214;2024-02-21T02:34:13;1.95;;;1.88;;
9986;SDS011;5033;46.310;11.214;2024-02-21T02:36:39;2.13;;;2.03;;
9986;SDS011;5033;46.310;11.214;2024-02-21T02:39:06;2.20;;;2.10;;
9986;SDS011;5033;46.310;11.214;2024-02-21T02:41:36;1.95;;;1.83;;
9986;SDS011;5033;46.310;11.214;2024-02-21T02:44:03;1.90;;;1.80;;
9986;SDS011;5033;46.310;11.214;2024-02-21T02:46:30;2.10;;;2.00;;
9986;SDS011;5033;46.310;11.214;2024-02-21T02:48:57;2.20;;;2.10;;
9986;SDS011;5033;46.310;11.214;2024-02-21T02:51:24;2.17;;;2.08;;
9986;SDS011;5033;46.310;11.214;2024-02-21T02:53:51;1.95;;;1.88;;
9986;SDS011;5033;46.310;11.214;2024-02-21T02:56:18;2.08;;;1.98;;
9986;SDS011;5033;46.310;11.214;2024-02-21T02:58:46;2.20;;;2.10;;
9986;SDS011;5033;46.310;11.214;2024-02-21T03:01:13;2.25;;;2.15;;
9986;SDS011;5033;46.310;11.214;2024-02-21T03:03:40;2.17;;;2.00;;
9986;SDS011;5033;46.310;11.214;2024-02-21T03:06:07;1.95;;;1.88;;
9986;SDS011;5033;46.310;11.214;2024-02-21T03:08:34;2.00;;;1.90;;
9986;SDS011;5033;46.310;11.214;2024-02-21T03:11:01;2.10;;;2.00;;
9986;SDS011;5033;46.310;11.214;2024-02-21T03:13:28;2.15;;;2.05;;
9986;SDS011;5033;46.310;11.214;2024-02-21T03:15:57;1.90;;;1.90;;
9986;SDS011;5033;46.310;11.214;2024-02-21T03:18:24;1.83;;;1.83;;
9986;SDS011;5033;46.310;11.214;2024-02-21T03:20:51;2.13;;;2.03;;
9986;SDS011;5033;46.310;11.214;2024-02-21T03:23:18;2.20;;;2.10;;
9986;SDS011;5033;46.310;11.214;2024-02-21T03:25:45;1.90;;;1.90;;
9986;SDS011;5033;46.310;11.214;2024-02-21T03:28:12;2.20;;;2.10;;
9986;SDS011;5033;46.310;11.214;2024-02-21T03:30:39;2.10;;;2.00;;
9986;SDS011;5033;46.310;11.214;2024-02-21T03:33:07;2.15;;;2.05;;
9986;SDS011;5033;46.310;11.214;2024-02-21T03:35:34;2.05;;;1.98;;
9986;SDS011;5033;46.310;11.214;2024-02-21T03:38:01;2.10;;;2.00;;
9986;SDS011;5033;46.310;11.214;2024-02-21T03:40:28;1.80;;;1.80;;
9986;SDS011;5033;46.310;11.214;2024-02-21T03:42:55;2.00;;;1.90;;
9986;SDS011;5033;46.310;11.214;2024-02-21T03:45:22;1.98;;;1.90;;
9986;SDS011;5033;46.310;11.214;2024-02-21T03:47:50;2.13;;;2.03;;
9986;SDS011;5033;46.310;11.214;2024-02-21T03:50:18;1.85;;;1.85;;
9986;SDS011;5033;46.310;11.214;2024-02-21T03:52:45;1.83;;;1.83;;
9986;SDS011;5033;46.310;11.214;2024-02-21T03:55:13;2.05;;;1.95;;
9986;SDS011;5033;46.310;11.214;2024-02-21T03:57:40;2.10;;;2.00;;
9986;SDS011;5033;46.310;11.214;2024-02-21T04:00:07;2.20;;;2.10;;
9986;SDS011;5033;46.310;11.214;2024-02-21T04:02:37;2.45;;;2.35;;
9986;SDS011;5033;46.310;11.214;2024-02-21T04:05:04;2.10;;;2.00;;
9986;SDS011;5033;46.310;11.214;2024-02-21T04:07:36;1.63;;;1.63;;
9986;SDS011;5033;46.310;11.214;2024-02-21T04:10:03;2.10;;;2.00;;
9986;SDS011;5033;46.310;11.214;2024-02-21T04:12:30;2.00;;;1.92;;
9986;SDS011;5033;46.310;11.214;2024-02-21T04:14:57;2.40;;;2.30;;
9986;SDS011;5033;46.310;11.214;2024-02-21T04:17:24;2.10;;;2.00;;
9986;SDS011;5033;46.310;11.214;2024-02-21T04:19:52;2.50;;;2.40;;
9986;SDS011;5033;46.310;11.214;2024-02-21T04:22:30;2.20;;;2.10;;
9986;SDS011;5033;46.310;11.214;2024-02-21T04:25:00;2.40;;;2.30;;
9986;SDS011;5033;46.310;11.214;2024-02-21T04:27:27;1.80;;;1.70;;
9986;SDS011;5033;46.310;11.214;2024-02-21T04:29:54;2.03;;;1.92;;
9986;SDS011;5033;46.310;11.214;2024-02-21T04:32:21;1.83;;;1.77;;
9986;SDS011;5033;46.310;11.214;2024-02-21T04:34:48;1.92;;;1.83;;
9986;SDS011;5033;46.310;11.214;2024-02-21T04:37:15;2.10;;;2.00;;
9986;SDS011;5033;46.310;11.214;2024-02-21T04:39:42;1.95;;;1.92;;
9986;SDS011;5033;46.310;11.214;2024-02-21T04:42:10;1.92;;;1.90;;
9986;SDS011;5033;46.310;11.214;2024-02-21T04:44:37;1.92;;;1.83;;
9986;SDS011;5033;46.310;11.214;2024-02-21T04:47:04;1.85;;;1.75;;
9986;SDS011;5033;46.310;11.214;2024-02-21T04:49:31;2.05;;;1.98;;
9986;SDS011;5033;46.310;11.214;2024-02-21T04:51:58;2.03;;;1.92;;
9986;SDS011;5033;46.310;11.214;2024-02-21T04:54:26;1.90;;;1.80;;
9986;SDS011;5033;46.310;11.214;2024-02-21T04:56:53;2.33;;;2.22;;
9986;SDS011;5033;46.310;11.214;2024-02-21T04:59:21;2.10;;;2.00;;
9986;SDS011;5033;46.310;11.214;2024-02-21T05:01:48;2.40;;;2.30;;
9986;SDS011;5033;46.310;11.214;2024-02-21T05:04:15;2.13;;;2.03;;
9986;SDS011;5033;46.310;11.214;2024-02-21T05:06:42;2.10;;;2.00;;
9986;SDS011;5033;46.310;11.214;2024-02-21T05:09:10;2.00;;;1.90;;
9986;SDS011;5033;46.310;11.214;2024-02-21T05:11:38;2.08;;;1.90;;
9986;SDS011;5033;46.310;11.214;2024-02-21T05:14:05;1.83;;;1.73;;
9986;SDS011;5033;46.310;11.214;2024-02-21T05:16:34;2.00;;;2.00;;
9986;SDS011;5033;46.310;11.214;2024-02-21T05:19:01;1.98;;;1.88;;
9986;SDS011;5033;46.310;11.214;2024-02-21T05:21:29;2.22;;;2.13;;
9986;SDS011;5033;46.310;11.214;2024-02-21T05:23:56;2.30;;;2.20;;
9986;SDS011;5033;46.310;11.214;2024-02-21T05:26:25;2.30;;;2.20;;
9986;SDS011;5033;46.310;11.214;2024-02-21T05:28:54;2.40;;;2.20;;
9986;SDS011;5033;46.310;11.214;2024-02-21T05:31:21;2.22;;;2.13;;
9986;SDS011;5033;46.310;11.214;2024-02-21T05:33:50;2.03;;;1.92;;
9986;SDS011;5033;46.310;11.214;2024-02-21T05:36:17;2.10;;;2.00;;
9986;SDS011;5033;46.310;11.214;2024-02-21T05:38:44;2.22;;;2.13;;
9986;SDS011;5033;46.310;11.214;2024-02-21T05:41:13;2.40;;;2.30;;
9986;SDS011;5033;46.310;11.214;2024-02-21T05:43:40;2.17;;;2.08;;
9986;SDS011;5033;46.310;11.214;2024-02-21T05:46:07;2.00;;;1.90;;
9986;SDS011;5033;46.310;11.214;2024-02-21T05:48:34;2.05;;;1.95;;
9986;SDS011;5033;46.310;11.214;2024-02-21T05:51:02;2.20;;;2.10;;
9986;SDS011;5033;46.310;11.214;2024-02-21T05:53:30;2.50;;;2.40;;
9986;SDS011;5033;46.310;11.214;2024-02-21T05:55:57;2.15;;;2.05;;
9986;SDS011;5033;46.310;11.214;2024-02-21T05:58:24;2.40;;;2.30;;
9986;SDS011;5033;46.310;11.214;2024-02-21T06:00:51;2.40;;;2.30;;
9986;SDS011;5033;46.310;11.214;2024-02-21T06:03:18;2.78;;;2.67;;
9986;SDS011;5033;46.310;11.214;2024-02-21T06:05:45;2.80;;;2.70;;
9986;SDS011;5033;46.310;11.214;2024-02-21T06:08:13;2.75;;;2.65;;
9986;SDS011;5033;46.310;11.214;2024-02-21T06:10:40;2.53;;;2.42;;
9986;SDS011;5033;46.310;11.214;2024-02-21T06:13:07;2.70;;;2.60;;
9986;SDS011;5033;46.310;11.214;2024-02-21T06:15:34;2.80;;;2.60;;
9986;SDS011;5033;46.310;11.214;2024-02-21T06:18:01;2.88;;;2.72;;
9986;SDS011;5033;46.310;11.214;2024-02-21T06:20:29;2.60;;;2.50;;
9986;SDS011;5033;46.310;11.214;2024-02-21T06:22:56;2.45;;;2.35;;
9986;SDS011;5033;46.310;11.214;2024-02-21T06:25:25;2.08;;;1.98;;
9986;SDS011;5033;46.310;11.214;2024-02-21T06:27:52;2.50;;;2.40;;
9986;SDS011;5033;46.310;11.214;2024-02-21T06:30:19;2.33;;;2.22;;
9986;SDS011;5033;46.310;11.214;2024-02-21T06:32:46;2.45;;;2.25;;
9986;SDS011;5033;46.310;11.214;2024-02-21T06:35:13;2.17;;;2.08;;
9986;SDS011;5033;46.310;11.214;2024-02-21T06:37:40;2.25;;;2.15;;
9986;SDS011;5033;46.310;11.214;2024-02-21T06:40:08;2.30;;;2.20;;
9986;SDS011;5033;46.310;11.214;2024-02-21T06:42:36;2.35;;;2.25;;
9986;SDS011;5033;46.310;11.214;2024-02-21T06:45:03;2.42;;;2.33;;
9986;SDS011;5033;46.310;11.214;2024-02-21T06:47:31;2.55;;;2.45;;
9986;SDS011;5033;46.310;11.214;2024-02-21T06:49:58;2.50;;;2.40;;
9986;SDS011;5033;46.310;11.214;2024-02-21T06:52:25;2.63;;;2.53;;
9986;SDS011;5033;46.310;11.214;2024-02-21T06:54:53;2.65;;;2.47;;
9986;SDS011;5033;46.310;11.214;2024-02-21T06:57:20;2.33;;;2.22;;
9986;SDS011;5033;46.310;11.214;2024-02-21T06:59:48;2.45;;;2.35;;
9986;SDS011;5033;46.310;11.214;2024-02-21T07:02:15;2.10;;;2.00;;
9986;SDS011;5033;46.310;11.214;2024-02-21T07:04:42;2.55;;;2.45;;
9986;SDS011;5033;46.310;11.214;2024-02-21T07:07:09;2.38;;;2.28;;
9986;SDS011;5033;46.310;11.214;2024-02-21T07:09:36;2.65;;;2.55;;
9986;SDS011;5033;46.310;11.214;2024-02-21T07:12:03;2.60;;;2.50;;
9986;SDS011;5033;46.310;11.214;2024-02-21T07:14:31;2.70;;;2.60;;
9986;SDS011;5033;46.310;11.214;2024-02-21T07:17:00;3.78;;;3.58;;
9986;SDS011;5033;46.310;11.214;2024-02-21T07:19:28;2.80;;;2.60;;
9986;SDS011;5033;46.310;11.214;2024-02-21T07:21:55;2.72;;;2.53;;
9986;SDS011;5033;46.310;11.214;2024-02-21T07:24:23;2.92;;;2.72;;
9986;SDS011;5033;46.310;11.214;2024-02-21T07:26:49;3.05;;;2.85;;
9986;SDS011;5033;46.310;11.214;2024-02-21T07:29:16;2.85;;;2.75;;
9986;SDS011;5033;46.310;11.214;2024-02-21T07:31:43;3.25;;;3.05;;
9986;SDS011;5033;46.310;11.214;2024-02-21T07:34:15;3.22;;;3.00;;
9986;SDS011;5033;46.310;11.214;2024-02-21T07:36:42;2.90;;;2.70;;
9986;SDS011;5033;46.310;11.214;2024-02-21T07:39:09;2.90;;;2.70;;
9986;SDS011;5033;46.310;11.214;2024-02-21T07:41:36;2.50;;;2.40;;
9986;SDS011;5033;46.310;11.214;2024-02-21T07:44:05;2.25;;;2.15;;
9986;SDS011;5033;46.310;11.214;2024-02-21T07:46:32;2.00;;;1.90;;
9986;SDS011;5033;46.310;11.214;2024-02-21T07:49:00;2.15;;;2.05;;
9986;SDS011;5033;46.310;11.214;2024-02-21T07:51:29;2.00;;;1.90;;
9986;SDS011;5033;46.310;11.214;2024-02-21T07:53:56;2.50;;;2.35;;
9986;SDS011;5033;46.310;11.214;2024-02-21T07:56:23;2.67;;;2.05;;
9986;SDS011;5033;46.310;11.214;2024-02-21T07:58:53;2.03;;;1.92;;
9986;SDS011;5033;46.310;11.214;2024-02-21T08:01:20;2.58;;;2.38;;
9986;SDS011;5033;46.310;11.214;2024-02-21T08:03:47;2.28;;;1.98;;
9986;SDS011;5033;46.310;11.214;2024-02-21T08:06:14;2.05;;;1.95;;
9986;SDS011;5033;46.310;11.214;2024-02-21T08:08:42;2.38;;;2.17;;
9986;SDS011;5033;46.310;11.214;2024-02-21T08:11:09;2.20;;;2.00;;
9986;SDS011;5033;46.310;11.214;2024-02-21T08:13:36;2.35;;;2.17;;
9986;SDS011;5033;46.310;11.214;2024-02-21T08:16:03;1.80;;;1.70;;
9986;SDS011;5033;46.310;11.214;2024-02-21T08:18:31;2.10;;;2.00;;
9986;SDS011;5033;46.310;11.214;2024-02-21T08:21:01;2.38;;;2.17;;
9986;SDS011;5033;46.310;11.214;2024-02-21T08:23:29;1.77;;;1.67;;
9986;SDS011;5033;46.310;11.214;2024-02-21T08:25:58;1.85;;;1.75;;
9986;SDS011;5033;46.310;11.214;2024-02-21T08:28:25;1.88;;;1.77;;
9986;SDS011;5033;46.310;11.214;2024-02-21T08:30:52;2.50;;;2.13;;
9986;SDS011;5033;46.310;11.214;2024-02-21T08:33:19;2.00;;;1.90;;
9986;SDS011;5033;46.310;11.214;2024-02-21T08:35:49;1.80;;;1.70;;
9986;SDS011;5033;46.310;11.214;2024-02-21T08:38:16;2.00;;;1.90;;
9986;SDS011;5033;46.310;11.214;2024-02-21T08:40:43;2.70;;;2.13;;
9986;SDS011;5033;46.310;11.214;2024-02-21T08:43:12;1.92;;;1.80;;
9986;SDS011;5033;46.310;11.214;2024-02-21T08:45:39;1.70;;;1.60;;
9986;SDS011;5033;46.310;11.214;2024-02-21T08:48:06;2.70;;;1.80;;
9986;SDS011;5033;46.310;11.214;2024-02-21T08:50:34;1.70;;;1.60;;
9986;SDS011;5033;46.310;11.214;2024-02-21T08:53:01;2.13;;;1.92;;
9986;SDS011;5033;46.310;11.214;2024-02-21T08:55:28;2.10;;;1.73;;
9986;SDS011;5033;46.310;11.214;2024-02-21T08:57:55;2.00;;;1.90;;
9986;SDS011;5033;46.310;11.214;2024-02-21T09:00:24;2.30;;;2.10;;
9986;SDS011;5033;46.310;11.214;2024-02-21T09:02:52;2.55;;;1.48;;
9986;SDS011;5033;46.310;11.214;2024-02-21T09:05:21;2.08;;;1.98;;
9986;SDS011;5033;46.310;11.214;2024-02-21T09:07:49;2.85;;;2.00;;
9986;SDS011;5033;46.310;11.214;2024-02-21T09:10:16;1.98;;;1.88;;
9986;SDS011;5033;46.310;11.214;2024-02-21T09:12:43;2.45;;;1.90;;
9986;SDS011;5033;46.310;11.214;2024-02-21T09:15:10;2.00;;;1.90;;
9986;SDS011;5033;46.310;11.214;2024-02-21T09:17:38;2.00;;;1.90;;
9986;SDS011;5033;46.310;11.214;2024-02-21T09:20:06;1.75;;;1.65;;
9986;SDS011;5033;46.310;11.214;2024-02-21T09:22:35;1.80;;;1.70;;
9986;SDS011;5033;46.310;11.214;2024-02-21T09:25:03;2.67;;;1.70;;
9986;SDS011;5033;46.310;11.214;2024-02-21T09:27:30;2.55;;;1.80;;
9986;SDS011;5033;46.310;11.214;2024-02-21T09:29:57;1.95;;;1.80;;
9986;SDS011;5033;46.310;11.214;2024-02-21T09:32:24;2.42;;;1.60;;
9986;SDS011;5033;46.310;11.214;2024-02-21T09:34:53;2.00;;;1.48;;
9986;SDS011;5033;46.310;11.214;2024-02-21T09:37:20;3.90;;;1.50;;
9986;SDS011;5033;46.310;11.214;2024-02-21T09:39:47;1.50;;;1.40;;
9986;SDS011;5033;46.310;11.214;2024-02-21T09:42:16;2.33;;;1.40;;
9986;SDS011;5033;46.310;11.214;2024-02-21T09:44:46;2.70;;;1.73;;
9986;SDS011;5033;46.310;11.214;2024-02-21T09:47:16;1.92;;;1.42;;
9986;SDS011;5033;46.310;11.214;2024-02-21T09:49:48;1.70;;;1.60;;
9986;SDS011;5033;46.310;11.214;2024-02-21T09:52:17;1.30;;;1.20;;
9986;SDS011;5033;46.310;11.214;2024-02-21T09:54:46;1.48;;;1.38;;
9986;SDS011;5033;46.310;11.214;2024-02-21T09:57:14;1.60;;;1.50;;
9986;SDS011;5033;46.310;11.214;2024-02-21T09:59:42;4.20;;;1.58;;
9986;SDS011;5033;46.310;11.214;2024-02-21T10:02:11;1.67;;;1.58;;
9986;SDS011;5033;46.310;11.214;2024-02-21T10:04:39;1.65;;;1.55;;
9986;SDS011;5033;46.310;11.214;2024-02-21T10:07:06;2.15;;;1.60;;
9986;SDS011;5033;46.310;11.214;2024-02-21T10:09:35;1.30;;;1.30;;
9986;SDS011;5033;46.310;11.214;2024-02-21T10:12:08;1.60;;;1.50;;
9986;SDS011;5033;46.310;11.214;2024-02-21T10:14:36;1.67;;;1.58;;
9986;SDS011;5033;46.310;11.214;2024-02-21T10:17:03;1.52;;;1.45;;
9986;SDS011;5033;46.310;11.214;2024-02-21T10:19:34;1.50;;;1.30;;
9986;SDS011;5033;46.310;11.214;2024-02-21T10:22:02;3.20;;;1.35;;
9986;SDS011;5033;46.310;11.214;2024-02-21T10:24:29;1.60;;;1.50;;
9986;SDS011;5033;46.310;11.214;2024-02-21T10:27:05;1.52;;;1.42;;
9986;SDS011;5033;46.310;11.214;2024-02-21T10:29:35;2.10;;;1.63;;
9986;SDS011;5033;46.310;11.214;2024-02-21T10:32:03;1.50;;;1.40;;
9986;SDS011;5033;46.310;11.214;2024-02-21T10:34:32;4.30;;;1.45;;
9986;SDS011;5033;46.310;11.214;2024-02-21T10:36:59;1.70;;;1.40;;
9986;SDS011;5033;46.310;11.214;2024-02-21T10:39:28;1.48;;;1.38;;
9986;SDS011;5033;46.310;11.214;2024-02-21T10:41:56;1.52;;;1.40;;
9986;SDS011;5033;46.310;11.214;2024-02-21T10:44:28;1.35;;;1.30;;
9986;SDS011;5033;46.310;11.214;2024-02-21T10:46:55;1.63;;;1.40;;
9986;SDS011;5033;46.310;11.214;2024-02-21T10:49:23;1.65;;;1.40;;
9986;SDS011;5033;46.310;11.214;2024-02-21T10:51:53;1.50;;;1.40;;
9986;SDS011;5033;46.310;11.214;2024-02-21T10:54:31;2.33;;;1.58;;
9986;SDS011;5033;46.310;11.214;2024-02-21T10:57:11;2.10;;;1.52;;
9986;SDS011;5033;46.310;11.214;2024-02-21T10:59:41;4.10;;;1.63;;
9986;SDS011;5033;46.310;11.214;2024-02-21T11:02:10;1.45;;;1.35;;
9986;SDS011;5033;46.310;11.214;2024-02-21T11:04:38;2.67;;;1.38;;
9986;SDS011;5033;46.310;11.214;2024-02-21T11:07:06;1.50;;;1.40;;
9986;SDS011;5033;46.310;11.214;2024-02-21T11:09:33;1.50;;;1.40;;
9986;SDS011;5033;46.310;11.214;2024-02-21T11:12:02;1.42;;;1.33;;
9986;SDS011;5033;46.310;11.214;2024-02-21T11:14:29;2.17;;;1.33;;
9986;SDS011;5033;46.310;11.214;2024-02-21T11:17:02;2.90;;;1.52;;
9986;SDS011;5033;46.310;11.214;2024-02-21T11:19:30;3.63;;;1.55;;
9986;SDS011;5033;46.310;11.214;2024-02-21T11:21:58;1.60;;;1.10;;
9986;SDS011;5033;46.310;11.214;2024-02-21T11:24:26;1.48;;;1.38;;
9986;SDS011;5033;46.310;11.214;2024-02-21T11:26:54;1.52;;;1.35;;
9986;SDS011;5033;46.310;11.214;2024-02-21T11:29:24;2.30;;;1.25;;
9986;SDS011;5033;46.310;11.214;2024-02-21T11:31:52;2.00;;;1.17;;
9986;SDS011;5033;46.310;11.214;2024-02-21T11:34:20;1.50;;;1.30;;
9986;SDS011;5033;46.310;11.214;2024-02-21T11:36:48;1.85;;;1.23;;
9986;SDS011;5033;46.310;11.214;2024-02-21T11:39:19;1.20;;;1.10;;
9986;SDS011;5033;46.310;11.214;2024-02-21T11:41:47;1.85;;;1.25;;
9986;SDS011;5033;46.310;11.214;2024-02-21T11:44:25;1.17;;;1.10;;
9986;SDS011;5033;46.310;11.214;2024-02-21T11:46:52;1.52;;;1.42;;
9986;SDS011;5033;46.310;11.214;2024-02-21T11:49:20;1.05;;;1.05;;
9986;SDS011;5033;46.310;11.214;2024-02-21T11:51:47;1.30;;;1.20;;
9986;SDS011;5033;46.310;11.214;2024-02-21T11:54:14;1.15;;;1.15;;
9986;SDS011;5033;46.310;11.214;2024-02-21T11:56:42;1.00;;;1.00;;
9986;SDS011;5033;46.310;11.214;2024-02-21T11:59:09;1.20;;;1.20;;
9986;SDS011;5033;46.310;11.214;2024-02-21T12:01:36;1.15;;;1.15;;
9986;SDS011;5033;46.310;11.214;2024-02-21T12:04:03;1.40;;;1.30;;
9986;SDS011;5033;46.310;11.214;2024-02-21T12:06:32;1.20;;;1.20;;
9986;SDS011;5033;46.310;11.214;2024-02-21T12:08:59;1.45;;;1.35;;
9986;SDS011;5033;46.310;11.214;2024-02-21T12:11:27;1.30;;;1.10;;
9986;SDS011;5033;46.310;11.214;2024-02-21T12:14:00;10.55;;;1.20;;
9986;SDS011;5033;46.310;11.214;2024-02-21T12:16:28;1.25;;;1.25;;
9986;SDS011;5033;46.310;11.214;2024-02-21T12:18:56;2.70;;;1.20;;
9986;SDS011;5033;46.310;11.214;2024-02-21T12:21:23;1.13;;;1.10;;
9986;SDS011;5033;46.310;11.214;2024-02-21T12:23:54;1.13;;;1.13;;
9986;SDS011;5033;46.310;11.214;2024-02-21T12:26:22;0.95;;;0.95;;
9986;SDS011;5033;46.310;11.214;2024-02-21T12:28:49;1.52;;;1.10;;
9986;SDS011;5033;46.310;11.214;2024-02-21T12:31:16;2.10;;;1.52;;
9986;SDS011;5033;46.310;11.214;2024-02-21T12:33:43;1.15;;;1.05;;
9986;SDS011;5033;46.310;11.214;2024-02-21T12:36:10;1.15;;;1.05;;
9986;SDS011;5033;46.310;11.214;2024-02-21T12:38:37;1.13;;;1.13;;
9986;SDS011;5033;46.310;11.214;2024-02-21T12:41:05;1.55;;;1.17;;
9986;SDS011;5033;46.310;11.214;2024-02-21T12:43:34;0.90;;;0.90;;
9986;SDS011;5033;46.310;11.214;2024-02-21T12:46:00;1.27;;;1.17;;
9986;SDS011;5033;46.310;11.214;2024-02-21T12:48:27;1.80;;;1.00;;
9986;SDS011;5033;46.310;11.214;2024-02-21T12:50:54;1.40;;;1.02;;
9986;SDS011;5033;46.310;11.214;2024-02-21T12:53:22;1.40;;;1.30;;
9986;SDS011;5033;46.310;11.214;2024-02-21T12:55:49;1.10;;;1.00;;
9986;SDS011;5033;46.310;11.214;2024-02-21T12:58:17;1.00;;;1.00;;
9986;SDS011;5033;46.310;11.214;2024-02-21T13:00:44;1.27;;;1.08;;
9986;SDS011;5033;46.310;11.214;2024-02-21T13:03:11;1.38;;;1.27;;
9986;SDS011;5033;46.310;11.214;2024-02-21T13:05:38;1.20;;;1.10;;
9986;SDS011;5033;46.310;11.214;2024-02-21T13:08:06;0.80;;;0.80;;
9986;SDS011;5033;46.310;11.214;2024-02-21T13:10:33;1.00;;;1.00;;
9986;SDS011;5033;46.310;11.214;2024-02-21T13:13:00;1.35;;;1.10;;
9986;SDS011;5033;46.310;11.214;2024-02-21T13:15:29;1.30;;;1.20;;
9986;SDS011;5033;46.310;11.214;2024-02-21T13:17:56;1.88;;;1.10;;
9986;SDS011;5033;46.310;11.214;2024-02-21T13:20:23;1.27;;;1.17;;
9986;SDS011;5033;46.310;11.214;2024-02-21T13:22:51;0.88;;;0.88;;
9986;SDS011;5033;46.310;11.214;2024-02-21T13:25:18;1.10;;;1.10;;
9986;SDS011;5033;46.310;11.214;2024-02-21T13:27:46;1.20;;;1.10;;
9986;SDS011;5033;46.310;11.214;2024-02-21T13:30:13;1.02;;;1.02;;
9986;SDS011;5033;46.310;11.214;2024-02-21T13:32:42;1.38;;;1.08;;
9986;SDS011;5033;46.310;11.214;2024-02-21T13:35:11;1.23;;;1.20;;
9986;SDS011;5033;46.310;11.214;2024-02-21T13:37:38;1.55;;;1.42;;
9986;SDS011;5033;46.310;11.214;2024-02-21T13:40:05;1.40;;;1.30;;
9986;SDS011;5033;46.310;11.214;2024-02-21T13:42:34;1.10;;;1.10;;
9986;SDS011;5033;46.310;11.214;2024-02-21T13:45:01;1.30;;;1.30;;
9986;SDS011;5033;46.310;11.214;2024-02-21T13:47:30;1.45;;;1.35;;
9986;SDS011;5033;46.310;11.214;2024-02-21T13:49:58;1.35;;;1.20;;
9986;SDS011;5033;46.310;11.214;2024-02-21T13:52:25;1.15;;;1.15;;
9986;SDS011;5033;46.310;11.214;2024-02-21T13:54:52;1.52;;;1.42;;
9986;SDS011;5033;46.310;11.214;2024-02-21T13:57:19;1.50;;;1.40;;
9986;SDS011;5033;46.310;11.214;2024-02-21T13:59:46;1.60;;;1.50;;
9986;SDS011;5033;46.310;11.214;2024-02-21T14:02:13;1.80;;;1.70;;
9986;SDS011;5033;46.310;11.214;2024-02-21T14:04:40;1.50;;;1.40;;
9986;SDS011;5033;46.310;11.214;2024-02-21T14:07:09;2.50;;;1.70;;
9986;SDS011;5033;46.310;11.214;2024-02-21T14:09:35;3.05;;;1.90;;
9986;SDS011;5033;46.310;11.214;2024-02-21T14:12:03;1.85;;;1.75;;
9986;SDS011;5033;46.310;11.214;2024-02-21T14:14:33;1.90;;;1.80;;
9986;SDS011;5033;46.310;11.214;2024-02-21T14:17:00;1.88;;;1.77;;
9986;SDS011;5033;46.310;11.214;2024-02-21T14:19:27;1.63;;;1.52;;
9986;SDS011;5033;46.310;11.214;2024-02-21T14:21:54;1.95;;;1.77;;
9986;SDS011;5033;46.310;11.214;2024-02-21T14:24:23;2.08;;;1.98;;
9986;SDS011;5033;46.310;11.214;2024-02-21T14:26:50;2.05;;;1.85;;
9986;SDS011;5033;46.310;11.214;2024-02-21T14:29:17;1.90;;;1.80;;
9986;SDS011;5033;46.310;11.214;2024-02-21T14:31:44;2.08;;;1.98;;
9986;SDS011;5033;46.310;11.214;2024-02-21T14:34:11;2.10;;;2.00;;
9986;SDS011;5033;46.310;11.214;2024-02-21T14:36:38;2.13;;;1.90;;
9986;SDS011;5033;46.310;11.214;2024-02-21T14:39:05;1.95;;;1.80;;
9986;SDS011;5033;46.310;11.214;2024-02-21T14:41:34;3.03;;;2.10;;
9986;SDS011;5033;46.310;11.214;2024-02-21T14:44:01;2.08;;;1.90;;
9986;SDS011;5033;46.310;11.214;2024-02-21T14:46:28;2.47;;;2.17;;
9986;SDS011;5033;46.310;11.214;2024-02-21T14:48:55;2.25;;;2.05;;
9986;SDS011;5033;46.310;11.214;2024-02-21T14:51:22;2.15;;;2.00;;
9986;SDS011;5033;46.310;11.214;2024-02-21T14:53:49;3.38;;;2.33;;
9986;SDS011;5033;46.310;11.214;2024-02-21T14:56:16;2.45;;;2.13;;
9986;SDS011;5033;46.310;11.214;2024-02-21T14:58:44;2.67;;;2.47;;
9986;SDS011;5033;46.310;11.214;2024-02-21T15:01:13;4.07;;;2.80;;
9986;SDS011;5033;46.310;11.214;2024-02-21T15:03:40;2.60;;;2.40;;